Information Last Ob Photographs Calibration Meteogram Network Table Neighbors Monthly Summaries Observation History Wind Roses Custom Wind Roses Data Calendar Satellite Cloud Product Download

Satellite Cloud Product

NESDIS produces a Satellite Cloud Product (SCP) that supplements the ASOS ceilometer readings. This page merges the SCP data with the METAR observations for a given UTC date. Cloud level values are presented in feet above ground level. ECA represents estimated cloud amount expressed in percentage. An IEM Web Service provided the following JSON dataset for this page. Data is available for some sites back to 1993.

Year: Month: Day: Time Order:

 

SCP Valid UTCSatellite East SounderSatellite West SounderASOS METAR Report
Mid CloudsHigh CloudsLevels [ft]ECA [%]Mid CloudsHigh CloudsLevels [ft]ECA [%]Levels ftMETAR
0050ZCLR-0CLR-0CLR KPRO 250055Z AUTO 14008KT 10SM CLR 05/M03 A2980 RMK AO2 T00501035
0150ZCLR-0CLR-0CLR KPRO 250155Z AUTO 15008KT 10SM CLR 05/M03 A2980 RMK AO2 T00451031
0250ZSCT18000 - 260000SCT16000 - 270001CLR KPRO 250255Z AUTO 16008KT 10SM CLR 04/M03 A2979 RMK AO2 T00421029
0350ZCLR-0CLR-0CLR KPRO 250355Z AUTO 16010KT 10SM CLR 03/M03 A2978 RMK AO2 T00291029 401301085
0450ZSCT13000 - 140000SCT13000 - 140000CLR KPRO 250455Z AUTO 16007KT 10SM CLR 03/M02 A2977 RMK AO2 T00251025
0550ZSCT13000 - 160000CLR-0CLR KPRO 250555Z AUTO 17004KT 10SM CLR 01/M03 A2976 RMK AO2 T00121030 10091 20009
0650ZCLR-0CLR-0CLR KPRO 250655Z AUTO 17006KT 10SM CLR 01/M03 A2975 RMK AO2 T00051034
0750ZCLR-0CLR-0CLR KPRO 250755Z AUTO 18005KT 10SM CLR 00/M04 A2973 RMK AO2 T10031039
0850ZCLR-0CLR-0CLR KPRO 250855Z AUTO 19003KT 10SM CLR 01/M03 A2973 RMK AO2 T00071030
0950ZCLR-0CLR-0CLR KPRO 250955Z AUTO 21004KT 10SM CLR 01/M03 A2972 RMK AO2 T00051031
1050ZCLR-0CLR-0CLR KPRO 251055Z AUTO 01003KT 10SM CLR M01/M04 A2973 RMK AO2 T10131040
1150ZCLR-0CLR-0CLR KPRO 251155Z AUTO 35003KT 10SM CLR M01/M04 A2973 RMK AO2 T10131045 10015 21023
1250ZCLR-0CLR-0CLR KPRO 251255Z AUTO 00000KT 10SM CLR M02/M05 A2973 RMK AO2 T10241048